Time;durP1;ratioP1;P1;durP2;ratioP2;P2;SDS_P1;SDS_P2;PMS_P1;PMS_P2;Temp;Humidity;BMP_temperature;BMP_pressure;BME280_temperature;BME280_humidity;BME280_pressure;Samples;Min_cycle;Max_cycle;Signal;HPM_P1;HPM_P2
2023/09/21 00:00:38;;;;;;;42.05;23.30;;;23.70;99.90;;;;;;5057837;28;20021;-83
2023/09/21 00:03:06;;;;;;;33.90;21.42;;;23.70;99.90;;;;;;5057750;28;20029;-84
2023/09/21 00:05:33;;;;;;;33.17;22.08;;;23.70;99.90;;;;;;5063967;28;20096;-83
2023/09/21 00:07:59;;;;;;;35.88;21.65;;;23.60;99.90;;;;;;5037717;28;20033;-83
2023/09/21 00:10:29;;;;;;;33.70;21.23;;;23.60;99.90;;;;;;5054393;28;20040;-84
2023/09/21 00:12:56;;;;;;;31.67;20.98;;;23.50;99.90;;;;;;5054062;28;20122;-83
2023/09/21 00:15:27;;;;;;;34.80;21.02;;;23.50;99.90;;;;;;5064192;28;20032;-83
2023/09/21 00:17:54;;;;;;;33.25;21.65;;;23.50;99.90;;;;;;5074074;28;20094;-83
2023/09/21 00:20:23;;;;;;;33.65;21.83;;;23.50;99.90;;;;;;5073663;28;20024;-83
2023/09/21 00:22:53;;;;;;;31.25;20.92;;;23.50;99.90;;;;;;5074212;28;20024;-83
2023/09/21 00:25:23;;;;;;;35.40;21.23;;;23.50;99.90;;;;;;5064467;28;20079;-83
2023/09/21 00:27:50;;;;;;;33.78;20.85;;;23.50;99.90;;;;;;5053993;28;20037;-84
2023/09/21 00:30:16;;;;;;;36.88;23.98;;;23.50;99.90;;;;;;5054087;28;20481;-83
2023/09/21 00:32:47;;;;;;;41.65;24.90;;;23.60;99.90;;;;;;5037357;28;20035;-83
2023/09/21 00:35:15;;;;;;;41.80;22.85;;;23.60;99.90;;;;;;5063504;28;20046;-83
2023/09/21 00:37:43;;;;;;;36.35;21.25;;;23.70;99.90;;;;;;5073816;28;20028;-83
2023/09/21 00:40:20;;;;;;;35.45;21.30;;;23.70;99.90;;;;;;5075013;28;20021;-84
2023/09/21 00:42:47;;;;;;;38.28;22.42;;;23.70;99.90;;;;;;5073743;28;20366;-83
2023/09/21 00:45:14;;;;;;;34.53;21.60;;;23.60;99.90;;;;;;5067517;28;20029;-83
2023/09/21 00:47:52;;;;;;;34.38;21.05;;;23.60;99.90;;;;;;5054833;28;20028;-83
2023/09/21 00:50:24;;;;;;;33.00;22.42;;;23.60;99.90;;;;;;5053592;28;20033;-83
2023/09/21 00:52:55;;;;;;;32.25;21.27;;;23.60;99.90;;;;;;5036974;28;20029;-82
2023/09/21 00:55:25;;;;;;;41.47;22.80;;;23.50;99.90;;;;;;5063974;28;20032;-83
2023/09/21 00:57:59;;;;;;;39.20;23.55;;;23.60;99.90;;;;;;5056780;28;20074;-83
2023/09/21 01:00:31;;;;;;;37.78;22.67;;;23.60;99.90;;;;;;5059227;28;20036;-83
2023/09/21 01:03:07;;;;;;;37.03;22.65;;;23.60;99.90;;;;;;5054615;28;20028;-83
2023/09/21 01:05:36;;;;;;;43.13;22.33;;;23.60;99.90;;;;;;5063150;28;20029;-83
2023/09/21 01:08:09;;;;;;;32.83;22.77;;;23.60;99.90;;;;;;5074439;28;20550;-83
2023/09/21 01:10:49;;;;;;;35.40;22.55;;;23.60;99.90;;;;;;5073254;28;20037;-83
2023/09/21 01:13:17;;;;;;;41.28;23.55;;;23.60;99.90;;;;;;5073053;28;20036;-83
2023/09/21 01:15:47;;;;;;;41.10;22.13;;;23.60;99.90;;;;;;5053028;28;20033;-83
2023/09/21 01:18:16;;;;;;;38.95;23.30;;;23.60;99.90;;;;;;5053107;28;20082;-83
2023/09/21 01:20:44;;;;;;;40.33;24.98;;;23.60;99.90;;;;;;5053012;28;20025;-83
2023/09/21 01:23:22;;;;;;;47.13;24.63;;;23.60;99.90;;;;;;5054310;28;20103;-82
2023/09/21 01:25:52;;;;;;;39.83;24.98;;;23.50;99.90;;;;;;5062147;28;20025;-82
2023/09/21 01:28:22;;;;;;;48.95;27.40;;;23.60;99.90;;;;;;5052801;28;20068;-83
2023/09/21 01:30:51;;;;;;;46.15;26.20;;;23.60;99.90;;;;;;5069572;28;20031;-83
2023/09/21 01:33:18;;;;;;;54.08;28.73;;;23.50;99.90;;;;;;5051934;28;20040;-83
2023/09/21 01:35:47;;;;;;;56.40;30.92;;;23.60;99.90;;;;;;5072580;28;20024;-83
2023/09/21 01:38:14;;;;;;;54.35;32.05;;;23.60;99.90;;;;;;5073898;28;20033;-82
2023/09/21 01:40:42;;;;;;;55.17;33.55;;;23.60;99.90;;;;;;5072512;28;20029;-84
2023/09/21 01:43:18;;;;;;;61.22;32.95;;;23.60;99.90;;;;;;5072508;28;20025;-83
2023/09/21 01:45:49;;;;;;;61.42;34.35;;;23.60;99.90;;;;;;5044066;28;20056;-83
2023/09/21 01:48:19;;;;;;;58.85;35.03;;;23.60;99.90;;;;;;5053609;28;20029;-84
2023/09/21 01:50:47;;;;;;;53.92;29.98;;;23.60;99.90;;;;;;5052415;28;20490;-84
2023/09/21 01:53:20;;;;;;;47.28;29.70;;;23.50;99.90;;;;;;5052402;28;20048;-83
2023/09/21 01:55:49;;;;;;;55.25;29.98;;;23.40;99.90;;;;;;5063930;28;20021;-83
2023/09/21 01:58:18;;;;;;;46.08;30.45;;;23.30;99.90;;;;;;5072241;28;20499;-84
2023/09/21 02:00:57;;;;;;;47.65;30.33;;;23.20;99.90;;;;;;5055594;28;20024;-83
2023/09/21 02:03:30;;;;;;;59.47;32.88;;;23.20;99.90;;;;;;5073502;28;20028;-84
2023/09/21 02:06:07;;;;;;;59.05;32.65;;;23.20;99.90;;;;;;5058880;28;20367;-83
2023/09/21 02:08:33;;;;;;;62.08;32.63;;;23.20;99.90;;;;;;5035472;28;20187;-83
2023/09/21 02:11:00;;;;;;;57.85;32.45;;;23.10;99.90;;;;;;5051997;28;20474;-83
2023/09/21 02:13:26;;;;;;;55.28;30.65;;;23.10;99.90;;;;;;5052083;28;20134;-83
2023/09/21 02:15:52;;;;;;;52.65;30.45;;;23.10;99.90;;;;;;5047537;28;20031;-83
2023/09/21 02:18:19;;;;;;;56.42;29.95;;;23.00;99.90;;;;;;5073334;28;20021;-82
2023/09/21 02:20:55;;;;;;;50.72;29.35;;;23.00;99.90;;;;;;5071908;28;20020;-83
2023/09/21 02:23:22;;;;;;;44.25;27.17;;;23.10;99.90;;;;;;5073182;28;20040;-83
2023/09/21 02:25:48;;;;;;;45.33;24.73;;;23.10;99.90;;;;;;5061658;28;20112;-83
2023/09/21 02:28:15;;;;;;;42.22;24.55;;;23.20;99.90;;;;;;5051690;28;20055;-82
2023/09/21 02:30:46;;;;;;;35.30;23.75;;;23.20;99.90;;;;;;5053004;28;20021;-82
2023/09/21 02:33:15;;;;;;;40.25;22.38;;;23.20;99.90;;;;;;5051684;28;20041;-83
2023/09/21 02:35:44;;;;;;;38.15;22.40;;;23.10;99.90;;;;;;5062240;28;20028;-83
2023/09/21 02:38:11;;;;;;;37.78;22.38;;;23.00;99.90;;;;;;5073013;28;20013;-82
2023/09/21 02:40:45;;;;;;;40.10;23.60;;;22.90;99.90;;;;;;5071685;28;20397;-83
2023/09/21 02:43:13;;;;;;;34.50;21.58;;;22.90;99.90;;;;;;5071632;28;20402;-83
2023/09/21 02:45:40;;;;;;;28.27;21.27;;;22.80;99.90;;;;;;5062665;28;20037;-82
2023/09/21 02:48:08;;;;;;;29.52;20.25;;;22.80;99.90;;;;;;5051572;28;20064;-83
2023/09/21 02:50:35;;;;;;;23.70;19.70;;;22.80;99.90;;;;;;5035021;28;20426;-83
2023/09/21 02:53:06;;;;;;;29.52;20.17;;;22.80;99.90;;;;;;5034821;28;20029;-83
2023/09/21 02:55:42;;;;;;;32.10;18.77;;;22.80;99.90;;;;;;5051973;28;20035;-83
2023/09/21 02:58:11;;;;;;;28.42;18.80;;;22.80;99.90;;;;;;5054935;28;20024;-82
2023/09/21 03:00:49;;;;;;;33.08;19.42;;;22.70;99.90;;;;;;5055798;28;20043;-83
2023/09/21 03:03:20;;;;;;;37.13;20.38;;;22.80;99.90;;;;;;5059786;28;20033;-84
2023/09/21 03:05:49;;;;;;;30.73;19.75;;;22.80;99.90;;;;;;5051498;28;20498;-83
2023/09/21 03:08:18;;;;;;;38.58;21.45;;;22.80;99.90;;;;;;5034947;28;20052;-84
2023/09/21 03:10:50;;;;;;;33.20;21.15;;;22.80;99.90;;;;;;5052478;28;20049;-83
2023/09/21 03:13:18;;;;;;;34.03;20.65;;;22.80;99.90;;;;;;5062256;28;20029;-83
2023/09/21 03:15:52;;;;;;;37.83;21.88;;;22.80;99.90;;;;;;5051579;28;20036;-85
2023/09/21 03:18:19;;;;;;;35.05;21.65;;;22.80;99.90;;;;;;5051642;28;20036;-85
2023/09/21 03:20:48;;;;;;;32.70;20.95;;;22.90;99.90;;;;;;5051889;28;20025;-85
2023/09/21 03:23:15;;;;;;;35.67;20.33;;;23.00;99.90;;;;;;5051898;28;20037;-86
2023/09/21 03:25:53;;;;;;;35.78;20.75;;;23.00;99.90;;;;;;5071661;28;20021;-86
2023/09/21 03:28:24;;;;;;;32.58;20.30;;;23.00;99.90;;;;;;5054970;28;20056;-85
2023/09/21 03:30:53;;;;;;;29.52;19.73;;;23.00;99.90;;;;;;5055112;28;20021;-86
2023/09/21 03:33:22;;;;;;;31.77;19.80;;;23.00;99.90;;;;;;5055044;28;20021;-85
2023/09/21 03:35:52;;;;;;;33.22;19.60;;;22.90;99.90;;;;;;5044672;28;20025;-85
2023/09/21 03:38:22;;;;;;;29.08;19.23;;;22.90;99.90;;;;;;5051863;28;20036;-87
2023/09/21 03:40:52;;;;;;;28.98;20.17;;;22.90;99.90;;;;;;5035025;28;20083;-84
2023/09/21 03:43:23;;;;;;;29.75;19.15;;;22.90;99.90;;;;;;5034776;28;20029;-84
2023/09/21 03:45:50;;;;;;;36.42;21.05;;;22.90;99.90;;;;;;5061969;28;20502;-85
2023/09/21 03:48:18;;;;;;;31.75;21.33;;;22.80;99.90;;;;;;5054422;28;20032;-84
2023/09/21 03:50:45;;;;;;;32.17;20.33;;;22.70;99.90;;;;;;5071421;28;20111;-84
2023/09/21 03:53:14;;;;;;;31.55;20.50;;;22.70;99.90;;;;;;5071265;28;20052;-85
2023/09/21 03:55:50;;;;;;;32.22;20.63;;;22.70;99.90;;;;;;5046315;28;20048;-85
2023/09/21 03:58:23;;;;;;;33.65;20.67;;;22.60;99.90;;;;;;5054765;28;20071;-83
2023/09/21 04:00:52;;;;;;;29.27;19.48;;;22.50;99.90;;;;;;5038354;28;20538;-83
2023/09/21 04:03:19;;;;;;;31.48;19.98;;;22.40;99.90;;;;;;5037695;28;20032;-82
2023/09/21 04:06:03;;;;;;;39.92;20.58;;;22.40;99.90;;;;;;5065564;28;20036;-82
2023/09/21 04:08:31;;;;;;;32.80;20.27;;;22.40;99.90;;;;;;5057626;28;20036;-82
2023/09/21 04:11:00;;;;;;;28.67;19.15;;;22.30;99.90;;;;;;5057458;28;20469;-84
2023/09/21 04:13:27;;;;;;;33.38;19.50;;;22.30;99.90;;;;;;5075534;28;20542;-82
2023/09/21 04:15:53;;;;;;;32.08;19.58;;;22.30;99.90;;;;;;5064608;28;20382;-82
2023/09/21 04:18:20;;;;;;;25.27;18.75;;;22.30;99.90;;;;;;5037868;28;20033;-82
2023/09/21 04:20:47;;;;;;;32.78;19.17;;;22.30;99.90;;;;;;5038236;28;20521;-82
2023/09/21 04:23:13;;;;;;;29.45;19.27;;;22.30;99.90;;;;;;5054237;28;20037;-83
2023/09/21 04:25:47;;;;;;;29.92;18.95;;;22.30;99.90;;;;;;5038085;28;20478;-82
2023/09/21 04:28:14;;;;;;;25.75;18.42;;;22.20;99.90;;;;;;5054269;28;20040;-83
2023/09/21 04:30:40;;;;;;;32.60;19.15;;;22.20;99.90;;;;;;5054897;28;20036;-81
2023/09/21 04:33:07;;;;;;;27.52;18.73;;;22.20;99.90;;;;;;5037618;28;20032;-82
2023/09/21 04:35:34;;;;;;;29.40;17.63;;;22.20;99.90;;;;;;5044949;28;20115;-83
2023/09/21 04:38:03;;;;;;;30.05;18.60;;;22.20;99.90;;;;;;5075642;28;20035;-82
2023/09/21 04:40:30;;;;;;;35.90;18.27;;;22.20;99.90;;;;;;5074450;28;20401;-82
2023/09/21 04:42:57;;;;;;;29.13;18.73;;;22.10;99.90;;;;;;5074597;28;20066;-82
2023/09/21 04:45:26;;;;;;;40.33;24.23;;;22.10;99.90;;;;;;5069095;28;20557;-82
2023/09/21 04:48:03;;;;;;;48.58;26.35;;;22.00;99.90;;;;;;5054205;28;20043;-82
2023/09/21 04:50:35;;;;;;;37.92;22.23;;;22.10;99.90;;;;;;5038856;28;20025;-82
2023/09/21 04:53:15;;;;;;;39.17;20.55;;;22.10;99.90;;;;;;5043849;28;20107;-82
2023/09/21 04:55:44;;;;;;;29.90;19.33;;;22.20;99.90;;;;;;5046342;28;20028;-81
2023/09/21 04:58:10;;;;;;;30.73;18.35;;;22.30;99.90;;;;;;5057097;28;20020;-82
2023/09/21 05:00:37;;;;;;;39.03;19.42;;;22.40;99.90;;;;;;5057416;28;20033;-82
2023/09/21 05:03:06;;;;;;;32.38;20.40;;;22.60;99.90;;;;;;5071192;28;20024;-82
2023/09/21 05:05:32;;;;;;;44.90;25.52;;;22.70;99.90;;;;;;5050318;28;20390;-83
2023/09/21 05:07:59;;;;;;;59.83;32.28;;;22.80;99.90;;;;;;5037177;28;20036;-83
2023/09/21 05:10:26;;;;;;;48.95;26.42;;;22.90;99.90;;;;;;5073040;28;20021;-83
2023/09/21 05:12:53;;;;;;;40.65;21.38;;;23.00;99.90;;;;;;5053559;28;20051;-86
2023/09/21 05:15:19;;;;;;;38.45;20.67;;;23.10;99.90;;;;;;5054318;28;20095;-86
2023/09/21 05:17:46;;;;;;;36.08;20.45;;;23.10;99.90;;;;;;5054470;28;20025;-89
2023/09/21 05:20:12;;;;;;;41.25;21.98;;;23.20;99.90;;;;;;5054297;28;20405;-86
2023/09/21 05:22:39;;;;;;;40.40;21.83;;;23.20;99.90;;;;;;5054358;28;20044;-86
2023/09/21 05:25:07;;;;;;;42.30;21.50;;;23.30;99.90;;;;;;5056823;28;20032;-86
2023/09/21 05:27:33;;;;;;;35.65;22.05;;;23.30;99.90;;;;;;5057563;28;20051;-87
2023/09/21 05:30:15;;;;;;;38.88;22.23;;;23.50;99.90;;;;;;5057515;28;20029;-86
2023/09/21 05:32:41;;;;;;;42.85;21.30;;;23.60;99.90;;;;;;5057435;28;20116;-86
2023/09/21 05:35:10;;;;;;;43.33;20.63;;;23.70;99.90;;;;;;5054293;28;20025;-86
2023/09/21 05:37:38;;;;;;;33.75;20.40;;;23.80;99.90;;;;;;5037031;28;20087;-83
2023/09/21 05:40:05;;;;;;;34.97;19.77;;;23.90;99.90;;;;;;5052894;28;20040;-83
2023/09/21 05:42:35;;;;;;;30.33;20.60;;;24.00;99.90;;;;;;5053203;28;20029;-82
2023/09/21 05:45:02;;;;;;;30.23;19.10;;;24.20;99.90;;;;;;5036362;28;20516;-82
2023/09/21 05:47:28;;;;;;;41.88;18.30;;;24.20;99.90;;;;;;5052746;28;20379;-83
2023/09/21 05:49:55;;;;;;;32.40;18.90;;;24.20;99.90;;;;;;5036125;28;20061;-82
2023/09/21 05:52:24;;;;;;;30.38;16.88;;;24.10;99.90;;;;;;5052872;28;20071;-83
2023/09/21 05:54:51;;;;;;;27.55;17.45;;;24.20;99.90;;;;;;5036169;28;20068;-83
2023/09/21 05:57:17;;;;;;;26.25;17.65;;;24.20;99.90;;;;;;5072466;28;20028;-83
2023/09/21 05:59:44;;;;;;;33.15;16.35;;;24.20;99.90;;;;;;5072317;28;20024;-82
2023/09/21 06:02:13;;;;;;;29.92;16.77;;;24.20;99.90;;;;;;5072826;28;20111;-83
2023/09/21 06:04:41;;;;;;;31.05;17.17;;;24.20;99.90;;;;;;5072458;28;20024;-83
2023/09/21 06:07:09;;;;;;;33.25;17.13;;;24.20;99.90;;;;;;5036457;28;20127;-82
2023/09/21 06:09:35;;;;;;;25.10;17.70;;;24.30;99.90;;;;;;5052287;28;20040;-82
2023/09/21 06:12:02;;;;;;;21.35;15.73;;;24.30;99.90;;;;;;5035063;28;20049;-83
2023/09/21 06:14:28;;;;;;;26.33;16.02;;;24.40;99.90;;;;;;5052139;28;20489;-83
2023/09/21 06:16:56;;;;;;;26.85;16.00;;;24.40;99.90;;;;;;5069140;28;20028;-83
2023/09/21 06:19:23;;;;;;;27.25;16.90;;;24.50;99.90;;;;;;5071751;28;20381;-83
2023/09/21 06:21:56;;;;;;;25.27;17.27;;;24.60;99.90;;;;;;5073173;28;20035;-83
2023/09/21 06:24:26;;;;;;;26.48;17.33;;;24.70;99.90;;;;;;5072295;28;20036;-84
2023/09/21 06:26:56;;;;;;;30.45;17.88;;;24.80;99.90;;;;;;5055233;28;20063;-83
2023/09/21 06:29:23;;;;;;;27.95;17.80;;;25.00;99.90;;;;;;5053094;28;20047;-82
2023/09/21 06:31:54;;;;;;;28.60;18.55;;;25.10;99.90;;;;;;5053254;28;20045;-82
2023/09/21 06:34:24;;;;;;;30.30;18.42;;;25.20;99.90;;;;;;5053123;28;20036;-82
2023/09/21 06:36:56;;;;;;;24.63;18.63;;;25.30;99.90;;;;;;5051279;28;20021;-83
2023/09/21 06:39:23;;;;;;;28.30;18.48;;;25.30;99.90;;;;;;5073194;28;20039;-83
2023/09/21 06:41:49;;;;;;;31.02;18.52;;;25.30;99.90;;;;;;5071798;28;20477;-83
2023/09/21 06:44:18;;;;;;;22.83;18.65;;;25.30;99.90;;;;;;5073493;28;20024;-83
2023/09/21 06:46:45;;;;;;;29.15;19.40;;;25.30;99.90;;;;;;5056818;28;20482;-83
2023/09/21 06:49:11;;;;;;;22.23;19.23;;;25.30;99.90;;;;;;5053050;28;20116;-84
2023/09/21 06:51:39;;;;;;;39.20;19.23;;;25.30;99.90;;;;;;5035833;28;20017;-83
2023/09/21 06:54:07;;;;;;;45.35;21.15;;;25.40;99.90;;;;;;5053159;28;20032;-83
2023/09/21 06:56:34;;;;;;;25.50;18.98;;;25.30;99.90;;;;;;5064493;28;20451;-82
2023/09/21 06:59:01;;;;;;;30.45;20.55;;;25.40;99.90;;;;;;5068011;28;20017;-82
2023/09/21 07:01:32;;;;;;;26.17;20.05;;;25.40;99.90;;;;;;5069258;28;20021;-82
2023/09/21 07:04:00;;;;;;;28.40;19.27;;;25.40;99.90;;;;;;5071050;28;20082;-83
2023/09/21 07:06:26;;;;;;;29.67;19.77;;;25.30;99.90;;;;;;5072769;28;20024;-83
2023/09/21 07:08:53;;;;;;;34.20;18.90;;;25.20;99.90;;;;;;5054378;28;20486;-82
2023/09/21 07:11:19;;;;;;;34.95;19.60;;;25.20;99.90;;;;;;5050872;28;20136;-83
2023/09/21 07:13:47;;;;;;;26.23;17.27;;;25.20;99.90;;;;;;5051370;28;20029;-82
2023/09/21 07:16:18;;;;;;;29.08;18.88;;;25.10;99.90;;;;;;5054023;28;20386;-82
2023/09/21 07:18:47;;;;;;;31.27;19.33;;;25.10;99.90;;;;;;5070166;28;20362;-82
2023/09/21 07:21:14;;;;;;;27.83;17.35;;;25.10;99.90;;;;;;5071106;28;20114;-82
2023/09/21 07:23:44;;;;;;;26.35;18.60;;;25.10;99.90;;;;;;5054734;28;20043;-83
2023/09/21 07:26:11;;;;;;;21.13;17.50;;;25.10;99.90;;;;;;5051159;28;20115;-83
2023/09/21 07:28:41;;;;;;;28.08;18.45;;;25.20;99.90;;;;;;5067724;28;20032;-83
2023/09/21 07:31:09;;;;;;;30.00;18.10;;;25.30;99.90;;;;;;5075548;28;20615;-82
2023/09/21 07:33:35;;;;;;;26.83;18.55;;;25.30;99.90;;;;;;5077643;28;20398;-82
2023/09/21 07:36:02;;;;;;;24.08;17.75;;;25.30;99.90;;;;;;5082697;28;20032;-82
2023/09/21 07:38:28;;;;;;;29.75;19.42;;;25.20;99.90;;;;;;5076962;28;20016;-82
2023/09/21 07:40:56;;;;;;;32.83;19.02;;;25.20;99.90;;;;;;5060431;28;20085;-82
2023/09/21 07:43:23;;;;;;;68.20;32.97;;;25.30;99.90;;;;;;5094427;28;20032;-83
2023/09/21 07:45:50;;;;;;;52.78;28.20;;;25.50;99.90;;;;;;5077160;28;20027;-83
2023/09/21 07:48:20;;;;;;;62.85;34.70;;;25.60;99.90;;;;;;5076582;28;20040;-82
2023/09/21 07:50:49;;;;;;;52.65;29.52;;;25.70;99.90;;;;;;5036984;28;20087;-83
2023/09/21 07:53:16;;;;;;;33.28;23.35;;;25.80;99.90;;;;;;5020491;28;20125;-83
2023/09/21 07:55:43;;;;;;;36.05;22.48;;;26.10;99.90;;;;;;5039199;28;20036;-83
2023/09/21 07:58:10;;;;;;;30.65;21.80;;;26.30;99.90;;;;;;5044768;28;20025;-82
2023/09/21 08:00:37;;;;;;;28.35;20.60;;;26.30;99.90;;;;;;5037058;28;20047;-83
2023/09/21 08:03:03;;;;;;;34.58;22.35;;;26.50;99.90;;;;;;5053462;28;20116;-82
2023/09/21 08:05:32;;;;;;;37.72;23.30;;;27.00;99.90;;;;;;5053508;28;20706;-83
2023/09/21 08:07:58;;;;;;;28.17;22.10;;;27.20;99.90;;;;;;5052907;28;20128;-82
2023/09/21 08:10:25;;;;;;;24.90;22.02;;;27.30;99.90;;;;;;5053911;28;20033;-83
2023/09/21 08:12:54;;;;;;;30.77;22.67;;;27.20;99.90;;;;;;5053281;28;20433;-83
2023/09/21 08:15:21;;;;;;;28.98;21.48;;;27.00;99.90;;;;;;5051801;28;20120;-82
2023/09/21 08:17:48;;;;;;;25.42;21.00;;;26.80;99.90;;;;;;5009251;28;20017;-82
2023/09/21 08:20:15;;;;;;;28.88;20.55;;;26.60;99.90;;;;;;5033408;28;20030;-83
2023/09/21 08:22:47;;;;;;;25.58;20.50;;;26.50;99.90;;;;;;5020010;28;20033;-83
2023/09/21 08:25:15;;;;;;;23.88;21.35;;;26.80;99.90;;;;;;5052044;28;20367;-82
2023/09/21 08:27:45;;;;;;;30.55;22.80;;;27.00;99.90;;;;;;5050575;28;20036;-83
2023/09/21 08:30:15;;;;;;;27.88;24.10;;;27.50;99.90;;;;;;5075293;28;20028;-82
2023/09/21 08:32:48;;;;;;;26.92;23.90;;;27.60;99.90;;;;;;5074456;28;20052;-87
2023/09/21 08:35:16;;;;;;;28.90;23.30;;;27.70;99.90;;;;;;5074700;28;20025;-86
2023/09/21 08:37:43;;;;;;;31.92;24.63;;;27.60;99.90;;;;;;5073938;28;20020;-86
2023/09/21 08:40:14;;;;;;;29.05;23.20;;;27.90;99.90;;;;;;5058324;28;20032;-84
2023/09/21 08:42:43;;;;;;;32.42;24.60;;;28.10;99.90;;;;;;5075878;28;20025;-79
2023/09/21 08:45:15;;;;;;;29.90;26.80;;;28.30;99.90;;;;;;5057247;28;20055;-87
2023/09/21 10:00:44;;;;;;;31.55;28.35;;;30.30;99.90;;;;;;5584741;23;20301;-88
2023/09/21 10:03:17;;;;;;;32.85;28.90;;;30.30;99.90;;;;;;4978274;28;20136;-91
2023/09/21 10:05:47;;;;;;;33.30;28.65;;;30.60;99.90;;;;;;5002191;28;20053;-91
2023/09/21 10:08:15;;;;;;;35.40;29.33;;;30.50;99.90;;;;;;4984333;28;20088;-91
2023/09/21 10:10:54;;;;;;;31.08;27.90;;;30.90;99.90;;;;;;4974809;28;20029;-92
2023/09/21 10:13:25;;;;;;;34.08;28.83;;;30.50;99.90;;;;;;4960815;28;20506;-92
2023/09/21 10:16:01;;;;;;;31.00;27.90;;;30.30;99.90;;;;;;4963514;29;20035;-91
2023/09/21 10:18:29;;;;;;;31.90;28.52;;;30.40;99.90;;;;;;4961966;28;20046;-92
2023/09/21 10:21:24;;;;;;;32.28;28.58;;;30.50;99.90;;;;;;4964285;28;20019;-92
2023/09/21 10:24:13;;;;;;;34.53;28.98;;;30.80;99.90;;;;;;4942644;29;20066;-90
2023/09/21 10:26:51;;;;;;;32.95;28.77;;;30.80;99.90;;;;;;4976053;28;20535;-89
2023/09/21 10:29:32;;;;;;;31.00;27.85;;;30.60;99.90;;;;;;4967838;29;20069;-91
2023/09/21 10:32:03;;;;;;;33.08;29.48;;;30.50;99.90;;;;;;4955298;28;20039;-91
2023/09/21 10:34:31;;;;;;;38.58;28.98;;;30.50;99.90;;;;;;4971750;28;20038;-91
2023/09/21 10:37:06;;;;;;;35.92;28.30;;;30.10;99.90;;;;;;4971280;28;20177;-92
2023/09/21 10:39:33;;;;;;;33.13;29.45;;;29.80;99.90;;;;;;4971238;28;20047;-91
2023/09/21 10:42:08;;;;;;;30.17;27.25;;;29.80;99.90;;;;;;4971342;28;20019;-91
2023/09/21 10:45:04;;;;;;;37.28;29.23;;;30.20;99.90;;;;;;4955179;28;20041;-91
2023/09/21 10:47:39;;;;;;;32.97;29.50;;;30.60;99.90;;;;;;4939197;29;20042;-92
2023/09/21 10:50:11;;;;;;;32.22;28.83;;;30.90;99.90;;;;;;4971571;28;20492;-91
2023/09/21 10:52:43;;;;;;;37.83;29.73;;;31.00;99.90;;;;;;4971659;28;20031;-91
2023/09/21 10:55:12;;;;;;;31.83;28.55;;;31.10;99.90;;;;;;4971440;28;20028;-92
2023/09/21 10:57:44;;;;;;;31.92;28.63;;;31.40;99.90;;;;;;4971385;28;20040;-92
2023/09/21 11:00:20;;;;;;;33.55;29.63;;;31.50;99.90;;;;;;4971472;28;20055;-91
2023/09/21 11:02:49;;;;;;;31.55;28.40;;;31.50;99.90;;;;;;4956323;28;20424;-92
2023/09/21 11:05:19;;;;;;;33.72;28.85;;;31.70;99.90;;;;;;4960642;28;20060;-92
2023/09/21 11:07:55;;;;;;;32.45;29.23;;;32.00;99.90;;;;;;4965879;28;20086;-89
2023/09/21 11:10:28;;;;;;;35.45;29.30;;;31.70;99.90;;;;;;4944005;29;20066;-91
2023/09/21 11:12:58;;;;;;;32.65;29.45;;;31.60;99.90;;;;;;4948596;29;20122;-91
2023/09/21 11:15:25;;;;;;;32.97;29.80;;;31.10;99.90;;;;;;4945635;29;20024;-86
2023/09/21 11:17:52;;;;;;;31.90;28.92;;;30.70;99.90;;;;;;4958925;29;20031;-85
2023/09/21 11:55:28;;;;;;;30.25;27.15;;;30.10;99.90;;;;;;4914474;26;20043;-87
2023/09/21 11:58:17;;;;;;;30.83;27.63;;;30.10;99.90;;;;;;4960475;28;20069;-87
2023/09/21 12:01:06;;;;;;;31.65;28.38;;;30.00;99.90;;;;;;4980722;28;20034;-85
2023/09/21 12:03:37;;;;;;;31.15;28.05;;;30.10;99.90;;;;;;4976674;28;20023;-86
2023/09/21 12:06:10;;;;;;;31.05;28.05;;;30.20;99.90;;;;;;4941776;29;20043;-84
2023/09/21 12:08:40;;;;;;;33.33;28.88;;;30.50;99.90;;;;;;4958382;29;20062;-85
2023/09/21 12:11:11;;;;;;;33.83;30.77;;;30.80;99.90;;;;;;4942869;29;20069;-86
2023/09/21 12:13:44;;;;;;;35.20;30.08;;;30.90;99.90;;;;;;4958404;29;20115;-84
2023/09/21 12:16:10;;;;;;;34.13;31.02;;;30.80;99.90;;;;;;4956961;28;20027;-84
2023/09/21 12:18:39;;;;;;;34.60;31.30;;;30.80;99.90;;;;;;4941700;28;20023;-86
2023/09/21 12:21:07;;;;;;;34.20;31.05;;;30.90;99.90;;;;;;4957303;28;20043;-84
2023/09/21 12:23:35;;;;;;;33.42;30.13;;;30.50;99.90;;;;;;4957715;28;20055;-85
2023/09/21 12:26:02;;;;;;;32.97;29.95;;;30.70;99.90;;;;;;4956841;29;20035;-84
2023/09/21 12:28:29;;;;;;;31.83;29.15;;;30.80;99.90;;;;;;4956959;28;20034;-84
2023/09/21 12:30:55;;;;;;;33.65;30.35;;;30.80;99.90;;;;;;4957413;29;20497;-84
2023/09/21 12:33:22;;;;;;;34.58;30.85;;;30.70;99.90;;;;;;4959006;29;20039;-82
2023/09/21 12:35:48;;;;;;;33.63;30.38;;;30.80;99.90;;;;;;4941136;29;20039;-85
2023/09/21 12:38:17;;;;;;;31.88;28.98;;;30.90;99.90;;;;;;4940062;28;20027;-83
2023/09/21 12:40:51;;;;;;;33.78;28.45;;;30.80;99.90;;;;;;4959267;29;20035;-82
2023/09/21 12:43:22;;;;;;;32.45;29.63;;;30.90;99.90;;;;;;4957169;28;20059;-82
2023/09/21 12:45:49;;;;;;;30.58;27.73;;;30.90;99.90;;;;;;4938507;29;20493;-83
2023/09/21 12:48:17;;;;;;;29.45;26.83;;;30.60;99.90;;;;;;4922497;29;20536;-82
2023/09/21 12:50:43;;;;;;;29.35;27.08;;;30.20;99.90;;;;;;4938206;29;20393;-83
2023/09/21 12:53:10;;;;;;;29.23;26.55;;;30.10;99.90;;;;;;4937602;29;20548;-85
2023/09/21 12:55:40;;;;;;;30.23;27.13;;;29.70;99.90;;;;;;4958578;28;20035;-85
2023/09/21 12:58:11;;;;;;;30.23;27.23;;;29.70;99.90;;;;;;4940628;28;20031;-83
2023/09/21 13:00:44;;;;;;;31.25;27.85;;;29.80;99.90;;;;;;4940250;29;20039;-85
2023/09/21 13:03:12;;;;;;;33.58;27.88;;;29.40;99.90;;;;;;4957767;28;20030;-83
2023/09/21 13:05:45;;;;;;;31.70;28.67;;;29.50;99.90;;;;;;4939602;28;20066;-84
2023/09/21 13:08:12;;;;;;;32.55;29.23;;;29.30;99.90;;;;;;4956434;28;20027;-84
2023/09/21 13:10:43;;;;;;;31.30;28.20;;;29.30;99.90;;;;;;4939594;28;20030;-84
2023/09/21 13:13:10;;;;;;;53.80;39.92;;;29.30;99.90;;;;;;4955529;29;20028;-84
2023/09/21 13:15:41;;;;;;;30.75;27.52;;;29.30;99.90;;;;;;4955450;28;20556;-84
2023/09/21 13:18:15;;;;;;;36.45;31.27;;;29.20;99.90;;;;;;4955740;29;20035;-84
2023/09/21 13:20:46;;;;;;;74.33;54.07;;;29.20;99.90;;;;;;4955906;29;20514;-83
2023/09/21 13:23:18;;;;;;;45.85;35.70;;;29.10;99.90;;;;;;4955345;29;20019;-82
2023/09/21 13:25:48;;;;;;;39.13;29.17;;;29.00;99.90;;;;;;4955156;29;20444;-81
2023/09/21 13:28:23;;;;;;;47.70;31.75;;;28.90;99.90;;;;;;4954219;28;20027;-81
2023/09/21 13:30:53;;;;;;;51.92;37.72;;;29.20;99.90;;;;;;4956972;28;20119;-82
2023/09/21 13:33:21;;;;;;;59.30;42.95;;;29.40;99.90;;;;;;4940269;29;20403;-82
2023/09/21 13:35:51;;;;;;;39.90;31.42;;;29.40;99.90;;;;;;4957610;29;20027;-81
2023/09/21 13:38:27;;;;;;;39.72;30.08;;;29.50;99.90;;;;;;4958910;28;20035;-79
2023/09/21 13:40:59;;;;;;;41.80;34.78;;;29.50;99.90;;;;;;4958107;28;20027;-79
2023/09/21 13:43:34;;;;;;;39.22;33.25;;;29.60;99.90;;;;;;4958272;28;20039;-82
2023/09/21 13:46:01;;;;;;;32.95;29.42;;;29.50;99.90;;;;;;4957236;29;20117;-81
2023/09/21 13:48:32;;;;;;;31.25;27.83;;;29.50;99.90;;;;;;4954938;29;20067;-85
2023/09/21 13:51:05;;;;;;;29.95;26.92;;;29.50;99.90;;;;;;4954728;29;20027;-82
2023/09/21 13:53:44;;;;;;;30.33;27.48;;;29.40;99.90;;;;;;4937881;29;20053;-82
2023/09/21 13:56:14;;;;;;;33.65;28.50;;;29.20;99.90;;;;;;4954665;28;20039;-81
2023/09/21 13:58:46;;;;;;;31.40;27.95;;;29.40;99.90;;;;;;4954699;29;20042;-84
2023/09/21 14:01:20;;;;;;;34.47;29.65;;;29.10;99.90;;;;;;4939584;29;20155;-83
2023/09/21 14:03:48;;;;;;;31.73;28.42;;;29.00;99.90;;;;;;4954675;28;20027;-84
2023/09/21 14:06:16;;;;;;;31.88;28.52;;;28.90;99.90;;;;;;4954749;29;20030;-83
2023/09/21 14:08:53;;;;;;;34.17;30.50;;;29.00;99.90;;;;;;4955224;28;20031;-83
2023/09/21 14:11:27;;;;;;;30.27;27.48;;;29.10;99.90;;;;;;4954444;29;20034;-83
2023/09/21 14:14:01;;;;;;;31.10;28.10;;;28.80;99.90;;;;;;4955009;29;20392;-83
2023/09/21 14:16:31;;;;;;;;;;;28.80;99.90;;;;;;4957905;28;20019;-83
2023/09/21 14:19:01;;;;;;;30.00;27.20;;;28.90;99.90;;;;;;4972485;28;20324;-83
2023/09/21 14:21:28;;;;;;;30.90;27.50;;;28.80;99.90;;;;;;4955009;29;20057;-83
2023/09/21 14:23:58;;;;;;;30.25;27.10;;;28.80;99.90;;;;;;4954495;28;20027;-82
2023/09/21 14:26:27;;;;;;;31.65;28.20;;;28.70;99.90;;;;;;4955341;28;20024;-84
2023/09/21 14:29:01;;;;;;;30.90;27.50;;;28.70;99.90;;;;;;4938250;28;20023;-83